Archival Weather

Norman Y Mineta San Jose Intl

San Jose, California (KSJC)

Report from: Sunday, January 28, 2024 4:53 PM PST
Current time: Monday, June 24, 2024 2:36 AM PDT

Current weather – Weather history – Daily summaries
Weather forecast

Temperature18.9°C (66.0°F)
Dew point10.6°C (51.1°F)
Winds 6 kts (3.1 m/s, 6.9 mph) Northwest (320°)
Visibility10 mi. (16.1 km)
Clouds Few clouds 5,500 ft. (1,676 m)
Scattered clouds 10,000 ft. (3,048 m)
Ceiling: Broken clouds 16,000 ft. (4,877 m)
Altimeter30.10 in.Hg (1019 mB)
Relative humidity59 %
Density altitude435 ft. (133 m)
Sea-level pressure101.9 kPa (1019 mB, 30.10 in.Hg)
Remarks Automated weather observing station with precipitation discriminator
Flight conditions Visual Meteorological Conditions
Raw dataKSJC 290053Z 32006KT 10SM FEW055 SCT100 BKN160 19/11 A3010 RMK AO2 SLP193 T01890106
An error has occurred. This application may no longer respond until reloaded. Reload 🗙